createdAt,value
2022-12-17T00:01:02.459Z,17.77
2022-12-17T00:02:17.554Z,16.25
2022-12-17T00:03:32.814Z,13.88
2022-12-17T00:04:48.306Z,16.75
2022-12-17T00:06:03.789Z,16.17
2022-12-17T00:07:18.970Z,17.70
2022-12-17T00:08:34.403Z,15.05
2022-12-17T00:09:50.510Z,14.98
2022-12-17T00:11:05.873Z,15.38
2022-12-17T00:12:21.028Z,14.70
2022-12-17T00:13:41.555Z,14.73
2022-12-17T00:14:56.705Z,18.73
2022-12-17T00:16:12.118Z,15.77
2022-12-17T00:17:27.609Z,13.95
2022-12-17T00:18:42.834Z,16.02
2022-12-17T00:19:57.784Z,17.00
2022-12-17T00:21:14.302Z,18.02
2022-12-17T00:22:29.468Z,19.60
2022-12-17T00:23:44.297Z,19.23
2022-12-17T00:24:59.159Z,19.05
2022-12-17T00:26:17.556Z,19.55
2022-12-17T00:27:32.782Z,18.60
2022-12-17T00:28:48.267Z,17.95
2022-12-17T00:30:03.351Z,14.38
2022-12-17T00:31:18.637Z,15.90
2022-12-17T00:32:33.333Z,19.08
2022-12-17T00:33:48.495Z,19.15
2022-12-17T00:35:03.910Z,12.85
2022-12-17T00:36:19.295Z,15.40
2022-12-17T00:37:34.559Z,19.45
2022-12-17T00:38:49.866Z,19.77
2022-12-17T00:40:05.206Z,15.70
2022-12-17T00:41:20.769Z,13.40
2022-12-17T00:42:35.744Z,13.20
2022-12-17T00:43:50.619Z,12.43
2022-12-17T00:45:06.754Z,10.00
2022-12-17T00:46:22.247Z,10.88
2022-12-17T00:47:37.709Z,11.40
2022-12-17T00:48:53.523Z,13.32
2022-12-17T00:50:08.703Z,11.30
2022-12-17T00:51:24.122Z,11.88
2022-12-17T00:53:58.157Z,14.20
2022-12-17T00:55:13.059Z,18.23
2022-12-17T00:56:28.581Z,10.10
2022-12-17T00:57:43.557Z,15.13
2022-12-17T00:58:58.724Z,11.77
2022-12-17T01:00:13.876Z,12.20
2022-12-17T01:01:40.092Z,15.65
2022-12-17T01:03:12.484Z,11.82
2022-12-17T01:04:28.115Z,11.27
2022-12-17T01:05:43.307Z,11.05
2022-12-17T01:06:58.284Z,14.07
2022-12-17T01:08:14.384Z,12.45
2022-12-17T01:09:29.791Z,16.52
2022-12-17T01:10:45.104Z,12.23
2022-12-17T01:12:00.548Z,12.70
2022-12-17T01:13:15.816Z,9.93
2022-12-17T01:14:30.931Z,19.75
2022-12-17T01:16:03.773Z,12.50
2022-12-17T01:17:19.132Z,9.95
2022-12-17T01:18:38.170Z,10.60
2022-12-17T01:19:53.528Z,13.80
2022-12-17T01:21:15.596Z,12.57
2022-12-17T01:22:30.854Z,11.30
2022-12-17T01:23:46.278Z,9.68
2022-12-17T01:25:01.523Z,17.40
2022-12-17T01:26:18.243Z,11.75
2022-12-17T01:27:33.766Z,13.02
2022-12-17T01:28:49.276Z,13.93
2022-12-17T01:30:04.635Z,14.93
2022-12-17T01:31:19.752Z,16.00
2022-12-17T01:32:35.357Z,16.92
2022-12-17T01:33:50.784Z,14.10
2022-12-17T01:35:06.062Z,12.80
2022-12-17T01:36:21.252Z,13.35
2022-12-17T01:37:36.535Z,14.75
2022-12-17T01:38:52.140Z,12.18
2022-12-17T01:40:07.067Z,14.43
2022-12-17T01:41:24.517Z,16.67
2022-12-17T01:42:39.675Z,18.27
2022-12-17T01:43:56.827Z,19.77
2022-12-17T01:45:13.074Z,9.88
2022-12-17T01:46:28.604Z,16.00
2022-12-17T01:47:45.968Z,14.23
2022-12-17T01:49:04.997Z,14.65
2022-12-17T01:50:20.495Z,18.02
2022-12-17T01:51:36.992Z,11.00
2022-12-17T01:52:52.847Z,14.40
2022-12-17T01:54:11.639Z,16.83
2022-12-17T01:55:27.045Z,18.33
2022-12-17T01:56:42.379Z,14.32
2022-12-17T01:57:58.088Z,16.88
2022-12-17T01:59:13.418Z,20.73
2022-12-17T02:00:32.166Z,14.35
2022-12-17T02:01:47.839Z,13.13
2022-12-17T02:03:03.771Z,15.75
2022-12-17T02:04:19.184Z,15.07
2022-12-17T02:05:34.715Z,13.93
2022-12-17T02:06:56.454Z,19.17
2022-12-17T02:08:50.985Z,13.77
2022-12-17T02:10:30.634Z,10.55
2022-12-17T02:12:18.168Z,15.77
2022-12-17T02:13:39.747Z,12.50
2022-12-17T02:15:00.894Z,9.93
2022-12-17T02:16:24.016Z,13.32
2022-12-17T02:17:43.967Z,14.88
2022-12-17T02:19:07.984Z,10.25
2022-12-17T02:20:32.259Z,10.20
2022-12-17T02:21:50.011Z,14.05
2022-12-17T02:23:14.185Z,9.40
2022-12-17T02:25:02.754Z,11.98
2022-12-17T02:26:51.985Z,17.17
2022-12-17T02:28:07.743Z,13.85
2022-12-17T02:29:25.625Z,21.58
2022-12-17T02:30:41.151Z,11.10
2022-12-17T02:31:59.761Z,11.52
2022-12-17T02:33:15.446Z,17.08
2022-12-17T02:34:30.610Z,12.68
2022-12-17T02:35:50.110Z,9.23
2022-12-17T02:37:05.018Z,12.73
2022-12-17T02:38:19.954Z,11.88
2022-12-17T02:39:35.185Z,10.32
2022-12-17T02:40:52.619Z,10.82
2022-12-17T02:42:15.343Z,9.48
2022-12-17T02:43:30.717Z,11.98
2022-12-17T02:44:47.323Z,11.95
2022-12-17T02:46:03.010Z,13.13
2022-12-17T02:47:21.594Z,11.80
2022-12-17T02:48:37.436Z,8.82
2022-12-17T02:49:52.953Z,8.50
2022-12-17T02:51:08.275Z,11.27
2022-12-17T02:52:23.796Z,11.60
2022-12-17T02:53:39.146Z,7.97
2022-12-17T02:54:54.068Z,7.95
2022-12-17T02:56:09.078Z,11.35
2022-12-17T02:57:24.515Z,8.00
2022-12-17T02:58:39.987Z,11.00
2022-12-17T02:59:54.866Z,14.60
2022-12-17T03:01:12.322Z,8.20
2022-12-17T03:02:27.780Z,8.93
2022-12-17T03:03:47.381Z,16.23
2022-12-17T03:05:21.407Z,9.52
2022-12-17T03:06:40.746Z,10.15
2022-12-17T03:07:55.903Z,10.52
2022-12-17T03:09:10.735Z,7.20
2022-12-17T03:10:26.197Z,10.27
2022-12-17T03:11:41.624Z,7.55
2022-12-17T03:12:56.429Z,11.13
2022-12-17T03:14:11.857Z,8.40
2022-12-17T03:15:27.444Z,9.43
2022-12-17T03:16:42.997Z,7.43
2022-12-17T03:17:58.653Z,13.98
2022-12-17T03:19:13.594Z,9.80
2022-12-17T03:20:28.877Z,6.85
2022-12-17T03:21:43.904Z,8.82
2022-12-17T03:22:59.485Z,9.32
2022-12-17T03:24:14.727Z,12.45
2022-12-17T03:25:29.977Z,8.90
2022-12-17T03:26:45.180Z,7.82
2022-12-17T03:28:00.785Z,6.07
2022-12-17T03:29:16.353Z,11.30
2022-12-17T03:30:35.734Z,5.80
2022-12-17T03:31:52.454Z,7.15
2022-12-17T03:33:07.765Z,6.20
2022-12-17T03:34:23.298Z,8.77
2022-12-17T03:35:38.201Z,8.00
2022-12-17T03:36:53.214Z,9.20
2022-12-17T03:38:08.605Z,12.80
2022-12-17T03:39:23.548Z,9.02
2022-12-17T03:40:38.779Z,10.38
2022-12-17T03:41:54.160Z,8.20
2022-12-17T03:43:09.228Z,8.90
2022-12-17T03:44:25.418Z,7.25
2022-12-17T03:45:40.830Z,9.63
2022-12-17T03:46:56.084Z,11.70
2022-12-17T03:48:21.703Z,12.45
2022-12-17T03:49:37.325Z,14.20
2022-12-17T03:50:52.840Z,9.98
2022-12-17T03:52:08.254Z,13.48
2022-12-17T03:53:24.365Z,11.50
2022-12-17T03:54:39.823Z,10.57
2022-12-17T03:55:55.305Z,10.60
2022-12-17T03:57:15.812Z,6.20
2022-12-17T03:58:31.277Z,9.57
2022-12-17T03:59:46.296Z,9.70
2022-12-17T04:01:01.790Z,9.70
2022-12-17T04:02:17.484Z,9.25
2022-12-17T04:03:32.944Z,10.25
2022-12-17T04:04:48.239Z,9.55
2022-12-17T04:06:03.964Z,10.48
2022-12-17T04:07:19.266Z,9.05
2022-12-17T04:08:34.897Z,10.85
2022-12-17T04:09:50.245Z,8.25
2022-12-17T04:11:05.312Z,11.48
2022-12-17T04:12:20.476Z,7.50
2022-12-17T04:13:40.448Z,12.00
2022-12-17T04:14:56.308Z,8.82
2022-12-17T04:16:11.328Z,10.82
2022-12-17T04:17:26.594Z,6.97
2022-12-17T04:18:41.674Z,13.60
2022-12-17T04:19:56.657Z,10.13
2022-12-17T04:21:11.864Z,11.73
2022-12-17T04:22:27.213Z,10.10
2022-12-17T04:23:42.778Z,9.02
2022-12-17T04:24:58.085Z,9.25
2022-12-17T04:26:12.897Z,10.98
2022-12-17T04:27:28.315Z,7.00
2022-12-17T04:28:43.858Z,11.13
2022-12-17T04:29:59.283Z,7.68
2022-12-17T04:31:14.900Z,7.60
2022-12-17T04:32:34.896Z,13.38
2022-12-17T04:34:04.103Z,14.70
2022-12-17T04:35:18.983Z,8.32
2022-12-17T04:36:35.544Z,12.18
2022-12-17T04:37:50.988Z,11.02
2022-12-17T04:39:06.436Z,6.70
2022-12-17T04:40:22.397Z,6.65
2022-12-17T04:41:37.605Z,7.13
2022-12-17T04:42:53.009Z,11.13
2022-12-17T04:44:08.030Z,9.00
2022-12-17T04:45:23.500Z,6.65
2022-12-17T04:46:38.495Z,6.45
2022-12-17T04:47:53.563Z,10.32
2022-12-17T04:49:09.043Z,9.15
2022-12-17T04:50:24.784Z,5.93
2022-12-17T04:51:40.304Z,7.18
2022-12-17T04:52:55.847Z,9.57
2022-12-17T04:54:11.176Z,8.68
2022-12-17T04:55:26.717Z,6.80
2022-12-17T04:56:42.261Z,10.05
2022-12-17T04:57:57.823Z,5.93
2022-12-17T04:59:12.845Z,7.85
2022-12-17T05:00:28.733Z,4.47
2022-12-17T05:01:44.303Z,7.20
2022-12-17T05:02:59.728Z,8.48
2022-12-17T05:04:15.048Z,18.50
2022-12-17T05:05:30.111Z,14.75
2022-12-17T05:06:49.835Z,29.63
2022-12-17T05:08:04.878Z,37.45
2022-12-17T05:09:19.860Z,30.15
2022-12-17T05:10:35.205Z,19.45
2022-12-17T05:11:50.789Z,15.02
2022-12-17T05:13:05.981Z,9.55
2022-12-17T05:14:21.394Z,10.20
2022-12-17T05:15:36.817Z,7.80
2022-12-17T05:16:52.366Z,11.90
2022-12-17T05:18:07.844Z,24.50
2022-12-17T05:19:22.851Z,32.05
2022-12-17T05:20:38.325Z,16.42
2022-12-17T05:21:53.738Z,18.23
2022-12-17T05:23:09.014Z,28.13
2022-12-17T05:24:24.441Z,18.58
2022-12-17T05:25:40.333Z,18.83
2022-12-17T05:26:55.888Z,21.70
2022-12-17T05:28:12.599Z,7.20
2022-12-17T05:29:27.893Z,10.23
2022-12-17T05:30:43.247Z,10.55
2022-12-17T05:31:58.197Z,16.63
2022-12-17T05:33:20.831Z,15.52
2022-12-17T05:34:35.803Z,34.42
2022-12-17T05:35:51.254Z,16.67
2022-12-17T05:37:06.282Z,20.50
2022-12-17T05:38:29.436Z,14.27
2022-12-17T05:39:45.016Z,12.63
2022-12-17T05:41:00.345Z,9.65
2022-12-17T05:42:15.330Z,14.70
2022-12-17T05:43:31.737Z,8.02
2022-12-17T05:44:46.669Z,8.20
2022-12-17T05:46:03.096Z,10.13
2022-12-17T05:47:18.381Z,6.35
2022-12-17T05:48:33.464Z,12.38
2022-12-17T05:49:48.947Z,9.85
2022-12-17T05:51:09.305Z,9.52
2022-12-17T05:52:25.267Z,7.97
2022-12-17T05:53:40.812Z,12.63
2022-12-17T05:54:55.923Z,13.65
2022-12-17T05:56:12.305Z,10.55
2022-12-17T05:57:27.543Z,6.05
2022-12-17T05:58:42.577Z,11.30
2022-12-17T05:59:57.893Z,9.65
2022-12-17T06:01:22.514Z,10.90
2022-12-17T06:02:37.863Z,7.15
2022-12-17T06:03:53.608Z,8.05
2022-12-17T06:05:08.527Z,9.55
2022-12-17T06:06:23.766Z,10.23
2022-12-17T06:07:39.266Z,9.27
2022-12-17T06:08:54.427Z,24.10
2022-12-17T06:10:09.615Z,19.52
2022-12-17T06:11:41.807Z,20.65
2022-12-17T06:12:57.007Z,9.85
2022-12-17T06:14:12.209Z,14.60
2022-12-17T06:15:27.708Z,37.78
2022-12-17T06:16:42.878Z,22.83
2022-12-17T06:17:58.119Z,20.02
2022-12-17T06:19:13.140Z,11.82
2022-12-17T06:20:28.895Z,8.23
2022-12-17T06:21:43.928Z,10.23
2022-12-17T06:22:59.432Z,11.95
2022-12-17T06:24:14.883Z,24.55
2022-12-17T06:25:30.222Z,15.98
2022-12-17T06:26:45.223Z,20.63
2022-12-17T06:28:11.034Z,9.98
2022-12-17T06:29:26.332Z,19.20
2022-12-17T06:30:41.343Z,38.53
2022-12-17T06:31:56.335Z,20.85
2022-12-17T06:33:11.686Z,14.65
2022-12-17T06:34:26.923Z,9.05
2022-12-17T06:35:41.856Z,10.82
2022-12-17T06:36:56.833Z,10.95
2022-12-17T06:38:23.778Z,13.35
2022-12-17T06:39:39.152Z,23.73
2022-12-17T06:40:54.446Z,30.75
2022-12-17T06:42:09.276Z,47.47
2022-12-17T06:43:25.512Z,21.38
2022-12-17T06:44:40.374Z,31.00
2022-12-17T06:45:55.355Z,24.60
2022-12-17T06:47:10.682Z,69.43
2022-12-17T06:48:27.432Z,64.30
2022-12-17T06:49:42.873Z,27.65
2022-12-17T06:50:58.009Z,16.80
2022-12-17T06:52:12.898Z,13.02
2022-12-17T06:53:29.157Z,11.48
2022-12-17T06:54:44.419Z,41.47
2022-12-17T06:55:59.436Z,29.17
2022-12-17T06:57:14.612Z,10.57
2022-12-17T06:58:29.542Z,7.20
2022-12-17T06:59:44.654Z,7.85
2022-12-17T07:01:00.213Z,9.40
2022-12-17T07:02:15.240Z,9.52
2022-12-17T07:03:30.775Z,5.07
2022-12-17T07:04:45.829Z,5.60
2022-12-17T07:06:01.563Z,6.72
2022-12-17T07:07:17.046Z,16.33
2022-12-17T07:08:32.526Z,9.13
2022-12-17T07:09:47.872Z,6.63
2022-12-17T07:11:03.036Z,9.23
2022-12-17T07:12:17.964Z,8.95
2022-12-17T07:13:32.985Z,9.30
2022-12-17T07:14:48.287Z,9.27
2022-12-17T07:16:03.303Z,9.52
2022-12-17T07:17:18.193Z,8.73
2022-12-17T07:18:33.696Z,7.60
2022-12-17T07:19:48.830Z,13.45
2022-12-17T07:21:04.297Z,13.95
2022-12-17T07:22:19.629Z,16.70
2022-12-17T07:23:35.141Z,16.38
2022-12-17T07:24:50.445Z,18.35
2022-12-17T07:26:05.390Z,14.60
2022-12-17T07:27:20.324Z,12.38
2022-12-17T07:28:35.320Z,10.43
2022-12-17T07:29:50.392Z,9.60
2022-12-17T07:31:05.678Z,11.98
2022-12-17T07:32:21.136Z,14.15
2022-12-17T07:33:36.795Z,15.55
2022-12-17T07:34:52.204Z,10.15
2022-12-17T07:36:07.144Z,9.93
2022-12-17T07:37:22.459Z,13.65
2022-12-17T07:38:37.337Z,15.82
2022-12-17T07:39:52.407Z,18.58
2022-12-17T07:41:08.015Z,10.30
2022-12-17T07:42:23.490Z,10.55
2022-12-17T07:43:39.330Z,12.02
2022-12-17T07:44:55.136Z,15.50
2022-12-17T07:46:10.753Z,8.32
2022-12-17T07:47:25.838Z,11.35
2022-12-17T07:48:41.150Z,8.20
2022-12-17T07:49:56.397Z,7.75
2022-12-17T07:51:11.906Z,7.30
2022-12-17T07:52:26.913Z,17.58
2022-12-17T07:53:41.693Z,11.05
2022-12-17T07:54:56.847Z,10.60
2022-12-17T07:56:11.654Z,10.63
2022-12-17T07:57:26.981Z,10.32
2022-12-17T07:58:41.895Z,12.98
2022-12-17T07:59:57.017Z,10.52
2022-12-17T08:01:12.780Z,7.93
2022-12-17T08:02:29.462Z,8.25
2022-12-17T08:03:44.930Z,9.13
2022-12-17T08:05:00.228Z,16.05
2022-12-17T08:06:18.054Z,11.57
2022-12-17T08:07:33.290Z,12.77
2022-12-17T08:08:48.421Z,10.00
2022-12-17T08:10:03.251Z,10.65
2022-12-17T08:11:18.336Z,59.40
2022-12-17T08:12:34.463Z,37.47
2022-12-17T08:13:49.420Z,21.65
2022-12-17T08:15:04.499Z,19.67
2022-12-17T08:16:19.336Z,12.23
2022-12-17T08:17:34.786Z,10.57
2022-12-17T08:18:49.967Z,11.55
2022-12-17T08:20:05.007Z,10.88
2022-12-17T08:21:24.390Z,112.25
2022-12-17T08:22:39.653Z,100.95
2022-12-17T08:23:54.645Z,30.60
2022-12-17T08:25:09.621Z,20.00
2022-12-17T08:26:25.129Z,14.13
2022-12-17T08:27:40.679Z,18.58
2022-12-17T08:28:56.242Z,32.15
2022-12-17T08:30:11.935Z,15.35
2022-12-17T08:31:27.094Z,17.05
2022-12-17T08:32:42.453Z,15.18
2022-12-17T08:33:57.650Z,21.85
2022-12-17T08:35:12.840Z,16.80
2022-12-17T08:36:27.800Z,20.70
2022-12-17T08:37:42.983Z,11.63
2022-12-17T08:38:58.354Z,8.65
2022-12-17T08:40:13.316Z,12.80
2022-12-17T08:41:28.316Z,12.98
2022-12-17T08:42:44.003Z,14.23
2022-12-17T08:43:58.817Z,13.18
2022-12-17T08:45:13.963Z,10.48
2022-12-17T08:46:29.118Z,14.98
2022-12-17T08:47:44.228Z,9.38
2022-12-17T08:48:59.714Z,12.35
2022-12-17T08:50:15.053Z,18.50
2022-12-17T08:51:29.929Z,24.75
2022-12-17T08:52:45.063Z,13.63
2022-12-17T08:54:00.163Z,12.32
2022-12-17T08:55:15.116Z,12.43
2022-12-17T08:56:30.006Z,13.98
2022-12-17T08:57:44.918Z,14.10
2022-12-17T08:58:59.851Z,9.98
2022-12-17T09:00:14.767Z,9.00
2022-12-17T09:01:30.279Z,7.53
2022-12-17T09:02:45.606Z,14.35
2022-12-17T09:04:01.072Z,7.88
2022-12-17T09:05:15.835Z,10.85
2022-12-17T09:06:37.356Z,5.85
2022-12-17T09:07:54.021Z,8.02
2022-12-17T09:09:08.867Z,4.90
2022-12-17T09:10:24.348Z,7.32
2022-12-17T09:11:39.441Z,6.30
2022-12-17T09:12:55.356Z,5.93
2022-12-17T09:14:12.910Z,5.25
2022-12-17T09:15:28.123Z,6.88
2022-12-17T09:16:43.584Z,7.28
2022-12-17T09:17:58.974Z,7.97
2022-12-17T09:19:14.048Z,8.38
2022-12-17T09:20:29.824Z,6.28
2022-12-17T09:21:49.943Z,3.03
2022-12-17T09:23:04.770Z,8.18
2022-12-17T09:24:19.866Z,3.72
2022-12-17T09:25:35.337Z,2.80
2022-12-17T09:26:50.666Z,5.00
2022-12-17T09:28:06.052Z,4.30
2022-12-17T09:29:21.853Z,3.55
2022-12-17T09:30:37.463Z,8.25
2022-12-17T09:31:53.138Z,4.13
2022-12-17T09:33:08.102Z,2.75
2022-12-17T09:34:23.591Z,2.55
2022-12-17T09:35:38.831Z,3.03
2022-12-17T09:36:54.394Z,1.77
2022-12-17T09:38:16.065Z,5.18
2022-12-17T09:39:31.264Z,3.13
2022-12-17T09:40:48.603Z,3.75
2022-12-17T09:42:10.396Z,2.80
2022-12-17T09:43:39.325Z,3.92
2022-12-17T09:45:26.813Z,6.10
2022-12-17T09:46:54.619Z,3.55
2022-12-17T09:48:26.898Z,7.50
2022-12-17T09:49:47.609Z,13.27
2022-12-17T09:51:05.061Z,5.72
2022-12-17T09:52:22.600Z,4.05
2022-12-17T09:53:42.668Z,4.80
2022-12-17T09:55:05.246Z,3.63
2022-12-17T09:56:20.726Z,5.30
2022-12-17T09:57:40.362Z,2.95
2022-12-17T09:58:58.657Z,9.13
2022-12-17T10:00:13.885Z,3.80
2022-12-17T10:01:41.193Z,5.28
2022-12-17T10:02:58.552Z,8.52
2022-12-17T10:04:14.096Z,6.22
2022-12-17T10:05:40.101Z,11.23
2022-12-17T10:06:55.240Z,5.10
2022-12-17T10:08:12.276Z,7.13
2022-12-17T10:09:36.292Z,5.55
2022-12-17T10:10:52.180Z,5.47
2022-12-17T10:12:07.551Z,6.20
2022-12-17T10:13:30.736Z,3.95
2022-12-17T10:14:46.264Z,1.75
2022-12-17T10:16:02.130Z,3.83
2022-12-17T10:17:17.488Z,5.30
2022-12-17T10:18:35.206Z,3.42
2022-12-17T10:19:54.814Z,1.33
2022-12-17T10:21:29.559Z,2.83
2022-12-17T10:22:45.047Z,3.10
2022-12-17T10:24:00.412Z,2.70
2022-12-17T10:25:15.970Z,4.63
2022-12-17T10:26:44.593Z,1.92
2022-12-17T10:28:00.339Z,8.40
2022-12-17T10:29:34.004Z,7.35
2022-12-17T10:30:49.872Z,4.85
2022-12-17T10:32:05.195Z,6.75
2022-12-17T10:33:25.286Z,6.55
2022-12-17T10:34:40.336Z,10.65
2022-12-17T10:35:56.401Z,6.47
2022-12-17T10:37:12.473Z,6.18
2022-12-17T10:38:46.147Z,6.32
2022-12-17T10:40:01.896Z,5.00
2022-12-17T10:41:17.272Z,3.75
2022-12-17T10:42:58.828Z,4.72
2022-12-17T10:44:13.984Z,7.28
2022-12-17T10:45:44.483Z,2.95
2022-12-17T10:46:59.463Z,2.80
2022-12-17T10:48:15.022Z,29.88
2022-12-17T10:49:42.140Z,9.57
2022-12-17T10:51:00.353Z,5.38
2022-12-17T10:52:48.652Z,4.93
2022-12-17T10:54:08.474Z,2.78
2022-12-17T10:55:24.954Z,2.97
2022-12-17T10:56:45.288Z,10.35
2022-12-17T10:58:01.639Z,6.07
2022-12-17T10:59:17.618Z,4.80
2022-12-17T11:00:49.691Z,2.35
2022-12-17T11:02:05.676Z,1.75
2022-12-17T11:03:22.877Z,3.00
2022-12-17T11:04:55.871Z,2.75
2022-12-17T11:06:13.547Z,5.35
2022-12-17T11:07:34.758Z,5.47
2022-12-17T11:08:50.777Z,2.80
2022-12-17T11:10:10.356Z,6.18
2022-12-17T11:11:31.130Z,4.13
2022-12-17T11:13:00.767Z,2.33
2022-12-17T11:14:19.730Z,2.80
2022-12-17T11:16:18.005Z,2.78
2022-12-17T11:17:37.425Z,2.05
2022-12-17T11:18:58.661Z,5.95
2022-12-17T11:20:19.504Z,15.00
2022-12-17T11:21:40.513Z,7.00
2022-12-17T11:23:15.211Z,11.52
2022-12-17T11:24:40.062Z,14.05
2022-12-17T11:26:06.903Z,39.55
2022-12-17T11:27:26.153Z,11.32
2022-12-17T11:28:47.069Z,12.50
2022-12-17T11:30:04.354Z,4.80
2022-12-17T11:31:31.836Z,7.30
2022-12-17T11:33:19.738Z,12.02
2022-12-17T11:34:55.808Z,16.60
2022-12-17T11:36:32.461Z,6.93
2022-12-17T11:38:04.900Z,4.93
2022-12-17T11:39:34.829Z,7.75
2022-12-17T11:40:52.826Z,10.18
2022-12-17T11:42:11.173Z,7.97
2022-12-17T11:43:46.887Z,7.18
2022-12-17T11:45:24.435Z,4.55
2022-12-17T11:47:11.502Z,2.35
2022-12-17T11:48:35.973Z,5.70
2022-12-17T11:50:18.332Z,2.90
2022-12-17T11:52:23.253Z,3.17
2022-12-17T11:53:41.352Z,3.25
2022-12-17T11:54:59.415Z,3.78
2022-12-17T11:56:55.608Z,3.10
2022-12-17T11:58:23.338Z,2.83
2022-12-17T11:59:52.471Z,131.50
2022-12-17T12:01:24.982Z,173.27
2022-12-17T12:03:25.376Z,80.35
2022-12-17T12:05:05.435Z,27.90
2022-12-17T12:06:29.360Z,10.52
2022-12-17T12:07:49.339Z,169.38
2022-12-17T12:09:31.574Z,71.68
2022-12-17T12:11:16.239Z,27.38
2022-12-17T12:12:40.239Z,36.90
2022-12-17T12:14:24.489Z,24.45
2022-12-17T12:16:13.849Z,54.97
2022-12-17T12:17:45.797Z,7.50
2022-12-17T12:19:13.210Z,16.55
2022-12-17T12:21:04.492Z,20.27
2022-12-17T12:22:31.545Z,6.45
2022-12-17T12:24:25.555Z,10.07
2022-12-17T12:25:50.607Z,6.10
2022-12-17T12:27:31.878Z,5.00
2022-12-17T12:28:53.942Z,7.95
2022-12-17T12:30:28.088Z,2.65
2022-12-17T12:31:48.589Z,5.90
2022-12-17T12:33:10.161Z,4.25
2022-12-17T12:34:32.718Z,4.78
2022-12-17T12:35:48.881Z,4.68
2022-12-17T12:37:05.362Z,9.60
2022-12-17T12:38:20.915Z,39.70
2022-12-17T12:39:41.325Z,13.75
2022-12-17T12:41:08.814Z,5.72
2022-12-17T12:42:39.684Z,6.30
2022-12-17T12:43:59.501Z,5.28
2022-12-17T12:45:31.792Z,4.05
2022-12-17T12:47:11.679Z,6.13
2022-12-17T12:48:47.203Z,9.75
2022-12-17T12:50:22.847Z,5.32
2022-12-17T12:51:46.337Z,4.07
2022-12-17T12:53:04.344Z,7.43
2022-12-17T12:54:21.180Z,5.95
2022-12-17T12:55:36.429Z,8.70
2022-12-17T12:56:54.305Z,9.57
2022-12-17T12:58:23.892Z,8.38
2022-12-17T12:59:49.196Z,3.88
2022-12-17T13:01:04.212Z,5.38
2022-12-17T13:02:19.906Z,6.05
2022-12-17T13:04:07.250Z,6.50
2022-12-17T13:05:33.760Z,4.13
2022-12-17T13:06:54.160Z,3.75
2022-12-17T13:08:10.263Z,8.07
2022-12-17T13:09:15.921Z,6.70
2022-12-17T13:10:28.614Z,5.78
2022-12-17T13:11:36.057Z,11.77
2022-12-17T13:12:45.796Z,3.65
2022-12-17T13:13:56.161Z,6.43
2022-12-17T13:14:58.546Z,3.80
2022-12-17T13:16:41.026Z,7.75
2022-12-17T13:18:27.552Z,10.23
2022-12-17T13:19:37.873Z,9.27
2022-12-17T13:20:35.244Z,11.32
2022-12-17T13:21:32.176Z,6.38
2022-12-17T13:22:36.136Z,3.45
2022-12-17T13:23:38.035Z,4.45
2022-12-17T13:24:34.684Z,9.63
2022-12-17T13:25:31.803Z,8.77
2022-12-17T13:26:44.022Z,12.05
2022-12-17T13:27:41.965Z,12.10
2022-12-17T13:28:38.875Z,13.32
2022-12-17T13:29:37.908Z,14.50
2022-12-17T13:30:36.801Z,22.23
2022-12-17T13:32:01.102Z,63.03
2022-12-17T13:33:19.609Z,9.93
2022-12-17T13:34:26.070Z,5.72
2022-12-17T13:35:37.668Z,6.47
2022-12-17T13:36:58.417Z,4.38
2022-12-17T13:38:07.523Z,8.40
2022-12-17T13:39:31.536Z,8.15
2022-12-17T13:40:33.760Z,6.65
2022-12-17T13:41:33.779Z,9.60
2022-12-17T13:42:32.892Z,6.22
2022-12-17T13:43:34.311Z,4.60
2022-12-17T13:44:40.223Z,4.40
2022-12-17T13:45:38.859Z,6.60
2022-12-17T13:46:46.977Z,7.88
2022-12-17T13:47:44.117Z,4.07
2022-12-17T13:48:41.875Z,4.30
2022-12-17T13:49:38.531Z,3.67
2022-12-17T13:50:36.457Z,2.83
2022-12-17T13:51:35.435Z,8.77
2022-12-17T13:52:33.738Z,7.53
2022-12-17T13:53:34.171Z,5.15
2022-12-17T13:54:31.082Z,5.75
2022-12-17T13:55:29.303Z,4.78
2022-12-17T13:56:29.632Z,2.13
2022-12-17T13:57:26.287Z,5.57
2022-12-17T13:58:33.393Z,1.95
2022-12-17T13:59:30.205Z,4.22
2022-12-17T14:00:30.403Z,3.53
2022-12-17T14:01:27.150Z,2.97
2022-12-17T14:02:25.654Z,5.25
2022-12-17T14:03:42.922Z,2.88
2022-12-17T14:04:40.887Z,1.88
2022-12-17T14:05:42.399Z,6.40
2022-12-17T14:06:39.147Z,5.55
2022-12-17T14:07:39.208Z,5.45
2022-12-17T14:08:36.736Z,4.30
2022-12-17T14:09:38.781Z,4.20
2022-12-17T14:10:35.617Z,8.52
2022-12-17T14:11:52.343Z,6.30
2022-12-17T14:12:50.063Z,4.35
2022-12-17T14:13:49.114Z,1.70
2022-12-17T14:14:48.488Z,2.05
2022-12-17T14:15:50.244Z,4.38
2022-12-17T14:16:50.782Z,5.18
2022-12-17T14:17:49.834Z,2.30
2022-12-17T14:18:53.876Z,3.05
2022-12-17T14:20:05.392Z,3.35
2022-12-17T14:21:02.590Z,5.95
2022-12-17T14:22:00.490Z,7.15
2022-12-17T14:23:03.334Z,4.88
2022-12-17T14:24:00.026Z,8.32
2022-12-17T14:24:56.797Z,11.93
2022-12-17T14:25:54.127Z,7.88
2022-12-17T14:26:53.685Z,6.07
2022-12-17T14:28:01.784Z,7.57
2022-12-17T14:28:58.455Z,6.28
2022-12-17T14:29:56.894Z,6.43
2022-12-17T14:31:32.137Z,5.70
2022-12-17T14:32:25.312Z,4.38
2022-12-17T14:33:30.827Z,9.75
2022-12-17T14:34:27.512Z,13.32
2022-12-17T14:35:25.643Z,18.42
2022-12-17T14:36:23.760Z,24.48
2022-12-17T14:37:23.584Z,22.63
2022-12-17T14:38:36.924Z,19.10
2022-12-17T14:39:34.887Z,28.58
2022-12-17T14:40:31.575Z,27.55
2022-12-17T14:41:47.509Z,20.33
2022-12-17T14:42:44.657Z,9.35
2022-12-17T14:43:41.222Z,6.63
2022-12-17T14:44:50.310Z,8.90
2022-12-17T14:46:12.533Z,12.20
2022-12-17T14:47:22.615Z,16.30
2022-12-17T14:48:19.250Z,14.73
2022-12-17T14:49:19.493Z,16.00
2022-12-17T14:50:16.092Z,14.65
2022-12-17T14:51:27.702Z,16.77
2022-12-17T14:52:48.832Z,14.60
2022-12-17T14:53:45.459Z,9.55
2022-12-17T14:54:46.893Z,10.13
2022-12-17T14:55:55.935Z,9.25
2022-12-17T14:56:54.732Z,39.90
2022-12-17T14:57:53.214Z,56.58
2022-12-17T14:58:49.847Z,84.15
2022-12-17T14:59:46.507Z,19.50
2022-12-17T15:00:47.509Z,161.20
2022-12-17T15:01:44.385Z,17.33
2022-12-17T15:02:43.245Z,34.13
2022-12-17T15:03:48.038Z,33.33
2022-12-17T15:04:44.879Z,14.55
2022-12-17T15:05:41.512Z,152.20
2022-12-17T15:06:38.134Z,62.47
2022-12-17T15:07:34.729Z,11.93
2022-12-17T15:08:42.728Z,65.05
2022-12-17T15:09:40.600Z,308.70
2022-12-17T15:10:37.162Z,16.35
2022-12-17T15:11:34.177Z,11.98
2022-12-17T15:12:30.800Z,107.85
2022-12-17T15:13:27.541Z,109.55
2022-12-17T15:14:24.133Z,83.07
2022-12-17T15:15:21.976Z,154.85
2022-12-17T15:16:18.707Z,71.00
2022-12-17T15:17:16.181Z,62.72
2022-12-17T15:18:12.799Z,45.40
2022-12-17T15:19:09.424Z,8.00
2022-12-17T15:20:06.486Z,9.15
2022-12-17T15:21:03.887Z,7.20
2022-12-17T15:22:00.508Z,12.23
2022-12-17T15:22:57.172Z,12.65
2022-12-17T15:23:54.389Z,23.38
2022-12-17T15:24:51.366Z,14.88
2022-12-17T15:25:50.186Z,19.38
2022-12-17T15:26:47.554Z,45.20
2022-12-17T15:27:45.132Z,9.43
2022-12-17T15:28:42.829Z,10.65
2022-12-17T15:29:39.447Z,30.95
2022-12-17T15:30:36.137Z,104.93
2022-12-17T15:31:35.648Z,66.95
2022-12-17T15:32:32.655Z,61.70
2022-12-17T15:33:29.359Z,71.53
2022-12-17T15:34:26.033Z,12.45
2022-12-17T15:35:22.874Z,9.13
2022-12-17T15:36:19.538Z,87.35
2022-12-17T15:37:21.101Z,507.92
2022-12-17T15:38:20.668Z,602.25
2022-12-17T15:39:17.256Z,684.78
2022-12-17T15:40:13.921Z,157.27
2022-12-17T15:41:29.206Z,71.28
2022-12-17T15:42:44.582Z,233.25
2022-12-17T15:43:41.167Z,507.50
2022-12-17T15:44:37.777Z,243.68
2022-12-17T15:45:34.392Z,50.63
2022-12-17T15:46:31.031Z,76.97
2022-12-17T15:47:27.626Z,68.88
2022-12-17T15:48:24.408Z,7.70
2022-12-17T15:49:21.324Z,62.70
2022-12-17T15:50:17.926Z,70.15
2022-12-17T15:51:19.366Z,102.65
2022-12-17T15:52:16.445Z,44.95
2022-12-17T15:53:13.295Z,76.18
2022-12-17T15:54:09.940Z,230.70
2022-12-17T15:55:06.885Z,173.55
2022-12-17T15:56:06.799Z,340.15
2022-12-17T15:57:03.536Z,331.70
2022-12-17T15:58:00.166Z,187.88
2022-12-17T15:58:58.189Z,501.15
2022-12-17T15:59:54.829Z,664.97
2022-12-17T16:00:51.460Z,600.60
2022-12-17T16:01:48.781Z,534.17
2022-12-17T16:02:45.689Z,130.90
2022-12-17T16:03:42.669Z,31.50
2022-12-17T16:04:39.424Z,23.95
2022-12-17T16:05:36.026Z,10.07
2022-12-17T16:06:33.589Z,10.38
2022-12-17T16:07:30.270Z,17.30
2022-12-17T16:08:26.833Z,10.27
2022-12-17T16:09:25.271Z,79.15
2022-12-17T16:10:21.872Z,96.22
2022-12-17T16:11:18.446Z,53.28
2022-12-17T16:12:15.109Z,23.50
2022-12-17T16:13:12.077Z,45.78
2022-12-17T16:14:08.966Z,28.05
2022-12-17T16:15:06.697Z,20.42